Time;durP1;ratioP1;P1;durP2;ratioP2;P2;SDS_P1;SDS_P2;PMS_P1;PMS_P2;Temp;Humidity;BMP_temperature;BMP_pressure;BME280_temperature;BME280_humidity;BME280_pressure;Samples;Min_cycle;Max_cycle;Signal;HPM_P1;HPM_P2
2022/05/12 00:00:24;;;;;;;;;;;;;;;9.76;39.03;98131.53;5031433;28;19929;-60
2022/05/12 00:02:50;;;;;;;;;;;;;;;9.76;38.52;98126.22;5031106;28;20275;-60
2022/05/12 00:05:16;;;;;;;;;;;;;;;9.75;38.58;98124.63;5030704;28;20433;-63
2022/05/12 00:07:49;;;;;;;;;;;;;;;9.78;38.39;98132.03;5029358;28;19964;-61
2022/05/12 00:10:16;;;;;;;;;;;;;;;9.82;38.10;98128.84;5029087;28;19952;-60
2022/05/12 00:12:42;;;;;;;;;;;;;;;9.85;38.31;98128.34;5029685;28;20421;-61
2022/05/12 00:15:11;;;;;;;;;;;;;;;9.86;38.56;98122.00;5029292;28;20365;-60
2022/05/12 00:17:36;;;;;;;;;;;;;;;9.89;37.77;98121.47;5030846;28;19925;-60
2022/05/12 00:20:03;;;;;;;;;;;;;;;9.96;38.13;98119.34;5032633;28;20365;-61
2022/05/12 00:22:28;;;;;;;;;;;;;;;10.00;38.34;98117.78;5033571;28;20338;-62
2022/05/12 00:24:54;;;;;;;;;;;;;;;10.05;38.08;98109.81;5016439;28;19980;-61
2022/05/12 00:27:19;;;;;;;;;;;;;;;10.14;37.20;98118.81;5034390;28;19971;-63
2022/05/12 00:29:45;;;;;;;;;;;;;;;10.21;37.72;98115.91;5034401;28;20437;-62
2022/05/12 00:32:11;;;;;;;;;;;;;;;10.28;38.17;98116.47;5032894;28;20330;-60
2022/05/12 00:34:36;;;;;;;;;;;;;;;10.31;38.55;98115.94;5034187;28;20464;-60
2022/05/12 00:37:02;;;;;;;;;;;;;;;10.32;38.15;98114.88;5034430;28;19928;-61
2022/05/12 00:39:27;;;;;;;;;;;;;;;10.30;38.60;98103.75;5032963;28;20433;-62
2022/05/12 00:41:53;;;;;;;;;;;;;;;10.31;38.47;98112.50;5034276;28;20040;-62
2022/05/12 00:44:18;;;;;;;;;;;;;;;10.30;39.00;98093.16;5034516;28;19936;-60
2022/05/12 00:46:44;;;;;;;;;;;;;;;10.34;38.55;98090.78;5034272;28;19929;-61
2022/05/12 00:49:37;;;;;;;;;;;;;;;10.33;37.96;98091.84;5032519;28;19979;-60
2022/05/12 00:52:06;;;;;;;;;;;;;;;10.33;37.57;98097.13;5032479;28;20023;-60
2022/05/12 00:54:51;;;;;;;;;;;;;;;10.34;38.62;98091.56;5032704;28;19983;-62
2022/05/12 00:57:27;;;;;;;;;;;;;;;10.34;37.93;98090.78;5029790;28;20397;-60
2022/05/12 00:59:52;;;;;;;;;;;;;;;10.35;37.98;98092.34;5012874;28;20020;-61
2022/05/12 01:02:18;;;;;;;;;;;;;;;10.36;37.32;98081.50;5046155;28;19975;-60
2022/05/12 01:04:44;;;;;;;;;;;;;;;10.39;37.89;98080.19;5033721;28;20317;-61
2022/05/12 01:07:10;;;;;;;;;;;;;;;10.43;37.57;98075.91;5032170;28;19929;-63
2022/05/12 01:09:36;;;;;;;;;;;;;;;10.47;38.66;98077.00;5033656;28;20405;-62
2022/05/12 01:12:02;;;;;;;;;;;;;;;10.50;39.20;98073.81;5033811;28;19925;-61
2022/05/12 01:14:27;;;;;;;;;;;;;;;10.55;38.02;98070.31;5033420;28;20329;-61
2022/05/12 01:16:54;;;;;;;;;;;;;;;10.61;37.70;98072.69;5032536;28;19932;-60
2022/05/12 01:19:21;;;;;;;;;;;;;;;10.67;38.72;98058.34;5034210;28;20353;-61
2022/05/12 01:21:47;;;;;;;;;;;;;;;10.73;37.73;98058.34;5031980;28;19936;-61
2022/05/12 01:24:13;;;;;;;;;;;;;;;10.79;37.87;98060.69;5033933;28;20302;-61
2022/05/12 01:26:39;;;;;;;;;;;;;;;10.86;37.35;98058.56;5032325;28;19937;-61
2022/05/12 01:29:05;;;;;;;;;;;;;;;10.99;37.92;98053.75;5033950;28;19929;-62
2022/05/12 01:31:31;;;;;;;;;;;;;;;11.07;37.76;98061.13;5011390;28;19930;-61
2022/05/12 01:33:56;;;;;;;;;;;;;;;11.12;38.06;98063.78;5025141;28;19924;-61
2022/05/12 01:36:22;;;;;;;;;;;;;;;11.13;38.72;98060.81;5031932;28;19929;-61
2022/05/12 01:38:48;;;;;;;;;;;;;;;11.18;39.01;98064.50;5033349;28;20321;-60
2022/05/12 01:41:14;;;;;;;;;;;;;;;11.27;38.77;98060.25;5048185;28;20392;-63
2022/05/12 01:43:40;;;;;;;;;;;;;;;11.36;38.32;98058.59;5031904;28;20024;-62
2022/05/12 01:46:05;;;;;;;;;;;;;;;11.44;38.45;98070.47;5032822;28;20036;-60
2022/05/12 01:48:31;;;;;;;;;;;;;;;11.55;38.42;98066.69;5032824;28;19929;-60
2022/05/12 01:50:56;;;;;;;;;;;;;;;11.63;37.62;98068.75;5031630;28;19929;-60
2022/05/12 01:53:22;;;;;;;;;;;;;;;11.94;37.04;98055.28;5031372;28;19931;-60
2022/05/12 01:55:48;;;;;;;;;;;;;;;12.23;35.78;98057.94;5032808;28;19929;-61
2022/05/12 01:58:14;;;;;;;;;;;;;;;12.49;35.42;98056.59;5032670;28;19924;-61
2022/05/12 02:00:40;;;;;;;;;;;;;;;12.66;35.13;98060.69;5032431;28;20326;-61
2022/05/12 02:03:06;;;;;;;;;;;;;;;12.84;35.38;98059.16;5032241;28;20440;-60
2022/05/12 02:05:32;;;;;;;;;;;;;;;12.82;35.71;98056.00;5011134;28;19930;-61
2022/05/12 02:07:57;;;;;;;;;;;;;;;12.71;35.36;98050.81;5013432;28;19932;-62
2022/05/12 02:10:28;;;;;;;;;;;;;;;12.59;35.47;98053.06;5021708;28;20015;-61
2022/05/12 02:12:53;;;;;;;;;;;;;;;12.52;35.63;98055.25;5015382;28;20007;-60
2022/05/12 02:15:19;;;;;;;;;;;;;;;12.42;36.51;98058.81;5031233;28;20396;-61
2022/05/12 02:17:45;;;;;;;;;;;;;;;12.33;36.63;98060.50;5031575;28;19929;-60
2022/05/12 02:20:10;;;;;;;;;;;;;;;12.26;36.94;98066.16;5031123;28;20023;-60
2022/05/12 02:22:36;;;;;;;;;;;;;;;12.23;37.60;98063.25;5031003;28;19925;-60
2022/05/12 02:25:02;;;;;;;;;;;;;;;12.13;37.46;98058.06;5014398;28;20016;-61
2022/05/12 02:27:28;;;;;;;;;;;;;;;12.13;37.26;98058.84;5031383;28;19974;-61
2022/05/12 02:29:53;;;;;;;;;;;;;;;12.17;37.66;98054.53;5031566;28;19929;-61
2022/05/12 02:32:19;;;;;;;;;;;;;;;12.20;37.60;98047.88;5032854;28;20306;-61
2022/05/12 02:34:44;;;;;;;;;;;;;;;12.23;37.43;98056.06;5032059;28;19991;-60
2022/05/12 02:37:10;;;;;;;;;;;;;;;12.25;38.00;98050.50;5031684;28;19928;-60
2022/05/12 02:39:37;;;;;;;;;;;;;;;12.27;38.15;98043.84;5031113;28;19933;-62
2022/05/12 02:42:03;;;;;;;;;;;;;;;12.20;38.08;98058.50;5031972;28;19925;-61
2022/05/12 02:44:29;;;;;;;;;;;;;;;12.16;38.45;98050.31;5031504;28;19975;-60
2022/05/12 02:46:54;;;;;;;;;;;;;;;12.16;38.45;98044.22;5031713;28;19929;-62
2022/05/12 02:49:20;;;;;;;;;;;;;;;12.23;38.76;98042.00;5032448;28;19932;-62
2022/05/12 02:51:47;;;;;;;;;;;;;;;12.27;38.71;98051.00;5031799;28;19929;-61
2022/05/12 02:54:13;;;;;;;;;;;;;;;12.28;38.40;98047.28;5032254;28;20023;-60
2022/05/12 02:56:42;;;;;;;;;;;;;;;12.21;39.13;98044.94;5032015;28;20045;-61
2022/05/12 02:59:08;;;;;;;;;;;;;;;12.20;39.02;98055.84;5030253;28;20382;-60
2022/05/12 03:01:33;;;;;;;;;;;;;;;12.17;39.19;98043.13;5030265;28;19936;-60
2022/05/12 03:03:59;;;;;;;;;;;;;;;12.17;39.28;98053.75;5032062;28;19932;-61
2022/05/12 03:06:25;;;;;;;;;;;;;;;12.17;39.06;98038.59;5031304;28;19929;-60
2022/05/12 03:08:50;;;;;;;;;;;;;;;12.05;39.47;98044.28;5032261;28;19975;-61
2022/05/12 03:11:16;;;;;;;;;;;;;;;11.98;39.97;98038.50;5031264;28;20024;-62
2022/05/12 03:13:41;;;;;;;;;;;;;;;11.99;39.85;98034.00;5029655;28;19929;-61
2022/05/12 03:16:07;;;;;;;;;;;;;;;12.08;39.69;98034.19;5030666;28;19975;-61
2022/05/12 03:18:33;;;;;;;;;;;;;;;12.16;39.60;98030.94;5031866;28;20244;-61
2022/05/12 03:20:58;;;;;;;;;;;;;;;12.22;39.79;98033.25;5031517;28;20023;-60
2022/05/12 03:23:24;;;;;;;;;;;;;;;12.28;40.27;98026.81;5031392;28;20359;-62
2022/05/12 03:25:51;;;;;;;;;;;;;;;12.31;40.65;98033.44;5029805;28;20082;-60
2022/05/12 03:28:16;;;;;;;;;;;;;;;12.35;40.22;98033.66;5031343;28;20397;-60
2022/05/12 03:30:43;;;;;;;;;;;;;;;12.39;40.05;98032.81;5031186;28;19928;-64
2022/05/12 03:33:09;;;;;;;;;;;;;;;12.41;40.34;98027.19;5031398;28;20012;-60
2022/05/12 03:35:36;;;;;;;;;;;;;;;12.42;40.44;98020.84;5029721;28;19933;-61
2022/05/12 03:38:02;;;;;;;;;;;;;;;12.38;40.87;98022.44;5012651;28;19925;-61
2022/05/12 03:40:27;;;;;;;;;;;;;;;12.41;40.78;98022.69;5010981;28;19930;-62
2022/05/12 03:42:57;;;;;;;;;;;;;;;12.49;40.52;98024.72;5012006;28;20012;-61
2022/05/12 03:45:23;;;;;;;;;;;;;;;12.52;40.61;98026.03;5024899;28;20416;-61
2022/05/12 03:47:49;;;;;;;;;;;;;;;12.59;40.54;98020.34;5031629;28;19961;-60
2022/05/12 03:50:16;;;;;;;;;;;;;;;12.61;40.61;98026.97;5031599;28;19929;-62
2022/05/12 03:52:42;;;;;;;;;;;;;;;12.63;40.03;98026.72;5030147;28;20012;-61
2022/05/12 03:55:10;;;;;;;;;;;;;;;12.66;40.70;98031.47;5015040;28;19946;-62
2022/05/12 03:57:37;;;;;;;;;;;;;;;12.65;40.50;98037.84;5035184;28;19925;-60
2022/05/12 04:00:06;;;;;;;;;;;;;;;12.65;40.50;98040.53;5035454;28;19979;-63
2022/05/12 04:02:36;;;;;;;;;;;;;;;12.62;40.55;98035.78;5033687;28;19995;-61
2022/05/12 04:05:01;;;;;;;;;;;;;;;12.65;40.02;98032.53;5033616;28;20398;-61
2022/05/12 04:07:27;;;;;;;;;;;;;;;12.68;39.91;98024.78;5035099;28;20283;-62
2022/05/12 04:09:52;;;;;;;;;;;;;;;12.81;40.17;98025.16;5034482;28;19929;-63
2022/05/12 04:12:18;;;;;;;;;;;;;;;12.94;39.84;98027.13;5033986;28;19929;-61
2022/05/12 04:14:44;;;;;;;;;;;;;;;12.97;39.63;98026.56;5034539;28;20440;-61
2022/05/12 04:17:12;;;;;;;;;;;;;;;13.03;39.72;98021.94;5033132;28;19925;-60
2022/05/12 04:19:42;;;;;;;;;;;;;;;13.13;40.17;98019.16;5032706;28;20325;-62
2022/05/12 04:22:08;;;;;;;;;;;;;;;13.22;39.79;98017.44;5033587;28;20019;-59
2022/05/12 04:24:33;;;;;;;;;;;;;;;13.29;39.66;98023.22;5034605;28;19984;-61
2022/05/12 04:26:59;;;;;;;;;;;;;;;13.36;39.54;98018.34;5034617;28;19978;-61
2022/05/12 04:29:25;;;;;;;;;;;;;;;13.36;39.93;98009.56;5034864;28;19959;-60
2022/05/12 04:31:50;;;;;;;;;;;;;;;13.41;39.98;98014.78;5033136;28;19979;-61
2022/05/12 04:37:00;;;;;;;;;;;;;;;13.40;39.95;98005.22;5033184;28;20027;-61
2022/05/12 04:39:25;;;;;;;;;;;;;;;13.47;40.38;98000.34;5033289;28;20461;-60
2022/05/12 04:41:51;;;;;;;;;;;;;;;13.47;40.17;97995.03;5033121;28;19925;-61
2022/05/12 04:44:17;;;;;;;;;;;;;;;13.53;40.48;97991.19;5033394;28;19924;-62
2022/05/12 04:46:43;;;;;;;;;;;;;;;13.59;40.94;97990.03;5034387;28;20002;-62
2022/05/12 04:49:10;;;;;;;;;;;;;;;13.61;40.26;97982.53;5034542;28;19935;-61
2022/05/12 04:51:36;;;;;;;;;;;;;;;13.66;40.59;97989.66;5033957;28;20035;-61
2022/05/12 04:54:01;;;;;;;;;;;;;;;13.61;40.68;97979.88;5033238;28;19928;-62
2022/05/12 04:56:27;;;;;;;;;;;;;;;13.64;41.21;97987.28;4999790;28;19929;-62
2022/05/12 04:58:53;;;;;;;;;;;;;;;13.64;40.97;97978.50;5015839;28;19960;-62
2022/05/12 05:01:18;;;;;;;;;;;;;;;13.58;41.45;97975.13;5034007;28;20386;-61
2022/05/12 05:03:44;;;;;;;;;;;;;;;13.52;41.62;97970.97;5033877;28;19925;-62
2022/05/12 05:06:10;;;;;;;;;;;;;;;13.61;42.16;97966.56;5032594;28;20039;-61
2022/05/12 05:08:36;;;;;;;;;;;;;;;13.67;41.82;97974.47;5012697;28;19929;-61
2022/05/12 05:11:03;;;;;;;;;;;;;;;13.72;41.86;97966.41;5013996;28;19929;-63
2022/05/12 05:13:31;;;;;;;;;;;;;;;13.79;42.31;97964.91;4996320;28;19965;-61
2022/05/12 05:15:56;;;;;;;;;;;;;;;13.89;42.09;97963.19;5023990;28;19968;-60
2022/05/12 05:18:22;;;;;;;;;;;;;;;13.94;42.23;97971.88;5033685;28;20024;-61
2022/05/12 05:20:48;;;;;;;;;;;;;;;13.96;42.75;97976.91;5033775;28;20479;-62
2022/05/12 05:23:15;;;;;;;;;;;;;;;13.99;42.73;97960.31;5016059;28;20413;-61
2022/05/12 05:25:41;;;;;;;;;;;;;;;14.01;42.40;97966.16;5031734;28;19975;-62
2022/05/12 05:28:07;;;;;;;;;;;;;;;14.18;42.28;97960.25;5032712;28;19984;-60
2022/05/12 05:30:35;;;;;;;;;;;;;;;14.34;42.18;97964.19;5033434;28;20378;-59
2022/05/12 05:33:01;;;;;;;;;;;;;;;14.53;42.29;97961.47;5033756;28;19920;-62
2022/05/12 05:35:26;;;;;;;;;;;;;;;14.75;41.77;97966.06;5015662;28;19929;-62
2022/05/12 05:37:52;;;;;;;;;;;;;;;14.86;41.90;97966.66;5026379;28;19988;-61
2022/05/12 05:40:19;;;;;;;;;;;;;;;14.91;41.38;97964.66;5027743;28;20020;-61
2022/05/12 05:42:45;;;;;;;;;;;;;;;14.93;42.02;97959.81;5031064;28;19947;-61
2022/05/12 05:45:12;;;;;;;;;;;;;;;14.91;42.42;97962.00;5013164;28;20419;-62
2022/05/12 05:47:39;;;;;;;;;;;;;;;15.07;42.19;97965.13;5013269;28;19925;-62
2022/05/12 05:50:05;;;;;;;;;;;;;;;15.19;41.55;97960.03;5012021;28;19937;-63
2022/05/12 05:55:14;;;;;;;;;;;;;;;15.50;41.84;97956.66;5014978;28;19929;-60
2022/05/12 05:57:42;;;;;;;;;;;;;;;15.67;42.07;97959.44;5031520;28;19925;-61
2022/05/12 06:00:09;;;;;;;;;;;;;;;15.89;41.34;97966.66;5032464;28;19929;-62
2022/05/12 06:02:35;;;;;;;;;;;;;;;16.22;40.49;97955.63;5015071;28;19936;-63
2022/05/12 06:05:01;;;;;;;;;;;;;;;16.55;39.54;97950.69;5030659;28;19929;-62
2022/05/12 06:07:28;;;;;;;;;;;;;;;16.81;39.87;97952.66;5029303;28;19944;-61
2022/05/12 06:09:54;;;;;;;;;;;;;;;16.98;39.19;97941.97;5030582;28;19929;-61
2022/05/12 06:12:19;;;;;;;;;;;;;;;17.08;38.96;97942.75;5030461;28;19929;-62
2022/05/12 06:14:45;;;;;;;;;;;;;;;17.28;38.98;97942.13;5029951;28;20353;-63
2022/05/12 06:17:10;;;;;;;;;;;;;;;17.43;38.85;97938.94;5029880;28;19925;-62
2022/05/12 06:19:36;;;;;;;;;;;;;;;17.41;38.32;97937.69;5029706;28;20032;-60
2022/05/12 06:22:02;;;;;;;;;;;;;;;17.56;38.55;97923.81;5029200;28;19925;-61
2022/05/12 06:24:28;;;;;;;;;;;;;;;17.73;38.01;97922.97;5029894;28;19929;-64
2022/05/12 06:26:54;;;;;;;;;;;;;;;17.89;37.43;97917.91;5010834;28;19933;-61
2022/05/12 06:29:20;;;;;;;;;;;;;;;18.11;36.65;97917.66;5009028;28;19971;-60
2022/05/12 06:31:47;;;;;;;;;;;;;;;18.41;37.17;97914.19;5009784;28;20473;-60
2022/05/12 06:34:13;;;;;;;;;;;;;;;18.68;36.12;97907.53;5018551;28;19978;-61
2022/05/12 06:36:39;;;;;;;;;;;;;;;18.91;35.67;97908.03;5028621;28;19975;-62
2022/05/12 06:39:06;;;;;;;;;;;;;;;18.93;35.30;97909.28;5029066;28;20408;-60
2022/05/12 06:41:32;;;;;;;;;;;;;;;19.10;35.05;97907.59;5029481;28;20374;-61
2022/05/12 06:43:58;;;;;;;;;;;;;;;19.28;35.30;97911.69;5028858;28;19971;-61
2022/05/12 06:46:25;;;;;;;;;;;;;;;19.28;35.11;97915.16;5030158;28;19947;-61
2022/05/12 06:48:51;;;;;;;;;;;;;;;19.20;35.36;97901.81;5030759;28;19925;-61
2022/05/12 06:51:16;;;;;;;;;;;;;;;19.18;35.75;97907.50;5030217;28;19929;-64
2022/05/12 06:53:42;;;;;;;;;;;;;;;19.41;35.43;97901.75;5012633;28;19944;-61
2022/05/12 06:56:08;;;;;;;;;;;;;;;19.42;35.14;97897.97;5030721;28;19929;-61
2022/05/12 06:58:34;;;;;;;;;;;;;;;19.44;35.42;97901.91;5026029;28;19925;-61
2022/05/12 07:01:00;;;;;;;;;;;;;;;19.46;35.30;97898.88;5029588;28;19929;-60
2022/05/12 07:03:26;;;;;;;;;;;;;;;19.65;34.79;97901.09;5030052;28;20023;-62
2022/05/12 07:05:51;;;;;;;;;;;;;;;19.76;34.99;97896.03;5029548;28;19929;-62
2022/05/12 07:08:17;;;;;;;;;;;;;;;19.96;34.92;97893.25;5030261;28;19925;-61
2022/05/12 07:10:43;;;;;;;;;;;;;;;19.96;35.01;97895.16;5028543;28;19936;-62
2022/05/12 07:13:08;;;;;;;;;;;;;;;19.92;34.79;97888.91;5027962;28;20407;-62
2022/05/12 07:15:34;;;;;;;;;;;;;;;20.06;34.88;97878.59;5045302;28;19975;-62
2022/05/12 07:18:00;;;;;;;;;;;;;;;19.87;35.31;97878.38;5028456;28;19925;-62
2022/05/12 07:28:41;;;;;;;;;;;;;;;20.15;35.48;97879.28;5028769;28;19925;-60
2022/05/12 07:31:09;;;;;;;;;;;;;;;20.03;35.34;97868.53;5016030;28;19929;-63
2022/05/12 07:33:37;;;;;;;;;;;;;;;20.07;35.39;97872.09;5016392;28;19925;-62
2022/05/12 07:36:04;;;;;;;;;;;;;;;20.01;35.37;97867.28;5034017;28;20393;-62
2022/05/12 07:38:32;;;;;;;;;;;;;;;20.03;35.13;97862.34;5034432;28;19931;-62
2022/05/12 07:40:58;;;;;;;;;;;;;;;20.05;35.85;97846.66;5037058;28;19964;-62
2022/05/12 07:43:25;;;;;;;;;;;;;;;19.99;35.71;97845.31;5033272;28;19964;-60
2022/05/12 07:45:54;;;;;;;;;;;;;;;20.02;35.77;97836.56;5001214;28;19975;-59
2022/05/12 07:48:20;;;;;;;;;;;;;;;20.00;36.09;97836.13;5034031;28;19925;-63
2022/05/12 07:50:45;;;;;;;;;;;;;;;20.06;35.55;97835.56;5034089;28;20343;-60
2022/05/12 07:53:11;;;;;;;;;;;;;;;20.08;35.35;97843.28;5033844;28;20317;-61
2022/05/12 07:55:37;;;;;;;;;;;;;;;20.30;35.17;97840.13;5033013;28;19936;-62
2022/05/12 07:58:04;;;;;;;;;;;;;;;20.28;35.07;97846.97;5030841;28;19932;-62
2022/05/12 08:00:33;;;;;;;;;;;;;;;20.32;35.22;97824.41;5032355;28;19929;-62
2022/05/12 08:03:03;;;;;;;;;;;;;;;20.52;34.39;97822.72;4998955;28;19925;-63
2022/05/12 08:05:29;;;;;;;;;;;;;;;20.74;34.51;97817.97;5032606;28;19929;-63
2022/05/12 08:07:55;;;;;;;;;;;;;;;21.01;34.00;97821.78;4998888;28;20027;-61
2022/05/12 08:10:20;;;;;;;;;;;;;;;21.08;33.97;97822.72;5033182;28;20020;-61
2022/05/12 08:12:46;;;;;;;;;;;;;;;21.18;34.00;97824.16;5032055;28;19929;-60
2022/05/12 08:15:12;;;;;;;;;;;;;;;21.32;33.84;97813.75;5032634;28;19929;-62
2022/05/12 08:17:37;;;;;;;;;;;;;;;21.38;33.84;97811.59;5032028;28;19926;-63
2022/05/12 08:20:05;;;;;;;;;;;;;;;21.35;33.82;97811.47;5032278;28;19929;-61
2022/05/12 08:22:31;;;;;;;;;;;;;;;21.36;34.66;97800.38;5031582;28;19932;-60
2022/05/12 08:24:57;;;;;;;;;;;;;;;21.45;34.92;97800.22;5033856;28;19938;-62
2022/05/12 08:27:23;;;;;;;;;;;;;;;21.40;35.25;97795.84;5032146;28;19925;-62
2022/05/12 08:29:49;;;;;;;;;;;;;;;21.26;35.91;97793.53;5013570;28;19929;-60
2022/05/12 08:32:15;;;;;;;;;;;;;;;21.30;35.99;97778.28;5031847;28;20344;-58
2022/05/12 08:34:41;;;;;;;;;;;;;;;21.33;35.91;97780.28;5032889;28;19929;-62
2022/05/12 08:37:09;;;;;;;;;;;;;;;21.15;36.10;97783.63;5032612;28;19925;-61
2022/05/12 08:39:35;;;;;;;;;;;;;;;20.99;36.64;97791.69;5031882;28;20003;-61
2022/05/12 08:42:36;;;;;;;;;;;;;;;21.17;36.78;97784.06;5012661;28;19929;-61
2022/05/12 08:45:05;;;;;;;;;;;;;;;21.22;37.01;97783.81;5030205;28;19968;-62
2022/05/12 08:47:34;;;;;;;;;;;;;;;21.11;36.88;97772.75;5014952;28;20007;-61
2022/05/12 08:49:59;;;;;;;;;;;;;;;21.05;36.70;97785.69;5033011;28;19960;-62
2022/05/12 08:52:27;;;;;;;;;;;;;;;21.05;36.62;97787.63;5031953;28;20485;-62
2022/05/12 08:54:56;;;;;;;;;;;;;;;21.08;36.14;97795.78;5031997;28;19929;-62
2022/05/12 08:57:26;;;;;;;;;;;;;;;21.12;36.05;97778.94;5030344;28;19932;-61
2022/05/12 08:59:52;;;;;;;;;;;;;;;21.13;36.20;97777.81;5031523;28;19929;-62
2022/05/12 09:02:36;;;;;;;;;;;;;;;21.31;36.14;97770.97;5033119;28;19978;-61
2022/05/12 09:05:02;;;;;;;;;;;;;;;21.41;35.86;97765.06;5031294;28;19936;-61
2022/05/12 09:07:30;;;;;;;;;;;;;;;21.43;36.26;97757.44;5033476;28;19960;-62
2022/05/12 09:10:01;;;;;;;;;;;;;;;21.51;36.03;97761.09;5031713;28;20267;-62
2022/05/12 09:12:45;;;;;;;;;;;;;;;21.66;36.07;97749.50;5033285;28;19925;-60
2022/05/12 09:15:11;;;;;;;;;;;;;;;21.51;36.12;97750.31;5031776;28;20019;-61
2022/05/12 09:17:44;;;;;;;;;;;;;;;21.49;36.17;97749.84;5031932;28;19932;-60
2022/05/12 09:20:09;;;;;;;;;;;;;;;21.56;36.29;97763.53;5030224;28;20417;-62
2022/05/12 09:22:36;;;;;;;;;;;;;;;21.39;36.71;97767.34;5013640;28;19932;-62
2022/05/12 09:25:02;;;;;;;;;;;;;;;21.29;35.97;97749.72;5030989;28;20306;-62
2022/05/12 09:27:32;;;;;;;;;;;;;;;21.33;35.75;97744.47;5032991;28;19932;-61
2022/05/12 09:29:57;;;;;;;;;;;;;;;21.50;35.23;97751.41;5031781;28;19929;-63
2022/05/12 09:32:25;;;;;;;;;;;;;;;21.40;35.18;97741.94;5030785;28;19932;-61
2022/05/12 09:35:05;;;;;;;;;;;;;;;21.18;35.72;97735.25;5033241;28;20035;-60
2022/05/12 09:37:32;;;;;;;;;;;;;;;21.22;35.77;97732.63;5032899;28;19973;-61
2022/05/12 09:39:59;;;;;;;;;;;;;;;21.37;35.92;97736.47;5031428;28;20327;-62
2022/05/12 09:42:27;;;;;;;;;;;;;;;21.40;36.17;97728.47;5031818;28;19925;-60
2022/05/12 09:44:54;;;;;;;;;;;;;;;21.35;36.55;97719.84;5033361;28;19929;-59
2022/05/12 09:47:20;;;;;;;;;;;;;;;21.17;37.09;97708.63;5032857;28;20402;-62
2022/05/12 09:49:46;;;;;;;;;;;;;;;21.13;36.32;97697.78;5030954;28;20036;-63
2022/05/12 09:52:15;;;;;;;;;;;;;;;21.04;37.15;97699.88;5013014;28;19931;-63
2022/05/12 09:54:41;;;;;;;;;;;;;;;21.06;37.09;97713.75;5032667;28;19929;-63
2022/05/12 09:57:12;;;;;;;;;;;;;;;20.98;36.51;97709.34;5032296;28;19925;-64
2022/05/12 09:59:38;;;;;;;;;;;;;;;20.95;37.05;97710.81;5018394;28;20329;-64
2022/05/12 10:02:11;;;;;;;;;;;;;;;20.91;37.01;97717.22;5031237;28;20287;-65
2022/05/12 10:10:17;;;;;;;;;;;;;;;20.89;37.02;97711.41;5030153;28;19933;-61
2022/05/12 10:12:47;;;;;;;;;;;;;;;20.83;37.17;97706.28;5031809;28;20423;-62
2022/05/12 10:15:22;;;;;;;;;;;;;;;20.74;37.66;97711.03;5012850;28;19929;-61
2022/05/12 10:17:54;;;;;;;;;;;;;;;20.70;37.67;97702.06;5030916;28;19925;-61
2022/05/12 10:20:21;;;;;;;;;;;;;;;20.81;37.37;97703.13;5029068;28;20015;-61
2022/05/12 10:23:07;;;;;;;;;;;;;;;20.96;37.05;97690.03;4999662;28;19925;-62
2022/05/12 10:25:47;;;;;;;;;;;;;;;21.07;37.13;97683.78;5009448;28;19933;-62
2022/05/12 10:28:15;;;;;;;;;;;;;;;21.14;36.66;97680.47;5030613;28;19925;-64
2022/05/12 10:31:07;;;;;;;;;;;;;;;21.21;36.76;97679.88;5029429;28;19929;-60
2022/05/12 10:34:05;;;;;;;;;;;;;;;21.23;36.31;97670.28;5039932;23;19986;-60
2022/05/12 10:36:58;;;;;;;;;;;;;;;21.12;36.19;97661.19;5015901;28;19928;-61
2022/05/12 10:39:35;;;;;;;;;;;;;;;21.01;36.82;97660.94;5046317;28;19936;-61
2022/05/12 10:42:07;;;;;;;;;;;;;;;20.91;36.99;97660.66;5030144;28;19933;-61
2022/05/12 10:44:36;;;;;;;;;;;;;;;20.98;37.03;97664.31;5029375;28;19968;-60
2022/05/12 10:47:04;;;;;;;;;;;;;;;21.05;37.57;97661.00;5030039;28;20368;-61
2022/05/12 10:49:37;;;;;;;;;;;;;;;21.05;37.60;97642.16;5029998;28;19929;-60
2022/05/12 10:52:21;;;;;;;;;;;;;;;21.11;37.29;97659.63;5044956;28;20628;-59
2022/05/12 10:55:04;;;;;;;;;;;;;;;21.25;38.08;97651.09;5049885;28;19951;-61
2022/05/12 10:57:33;;;;;;;;;;;;;;;21.29;37.59;97641.94;5050197;28;19933;-62
2022/05/12 11:00:17;;;;;;;;;;;;;;;21.37;38.07;97639.47;5047544;28;19925;-60
2022/05/12 11:02:50;;;;;;;;;;;;;;;21.36;37.76;97636.00;5050313;28;19990;-61
2022/05/12 11:05:17;;;;;;;;;;;;;;;21.44;37.61;97634.22;5047635;28;20316;-62
2022/05/12 11:07:45;;;;;;;;;;;;;;;21.54;37.62;97620.97;5050659;28;19928;-61
2022/05/12 11:10:16;;;;;;;;;;;;;;;21.66;37.63;97628.16;5048215;28;19962;-60
2022/05/12 11:12:49;;;;;;;;;;;;;;;21.86;37.12;97618.19;5049055;28;19936;-61
2022/05/12 11:15:25;;;;;;;;;;;;;;;22.00;36.99;97617.66;5048753;28;19924;-62
2022/05/12 11:17:56;;;;;;;;;;;;;;;22.12;36.51;97605.94;5048039;28;19963;-61
2022/05/12 11:20:25;;;;;;;;;;;;;;;22.31;35.50;97607.88;4997460;28;19995;-62
2022/05/12 11:22:56;;;;;;;;;;;;;;;22.47;35.07;97616.63;5029686;28;20051;-60
2022/05/12 11:25:54;;;;;;;;;;;;;;;22.55;34.76;97615.63;5028387;28;19925;-62
2022/05/12 11:31:14;;;;;;;;;;;;;;;22.41;34.46;97602.69;5038055;28;19932;-61
2022/05/12 11:33:39;;;;;;;;;;;;;;;22.59;34.14;97600.28;5050020;28;20171;-62
2022/05/12 11:36:08;;;;;;;;;;;;;;;22.85;33.93;97594.16;5037794;28;19964;-63
2022/05/12 11:38:37;;;;;;;;;;;;;;;23.08;33.48;97594.13;5028211;28;19929;-62
2022/05/12 11:41:06;;;;;;;;;;;;;;;23.20;33.02;97592.38;5029229;28;19925;-63
2022/05/12 11:46:17;;;;;;;;;;;;;;;23.16;32.81;97570.69;5029919;28;19932;-62
2022/05/12 11:49:03;;;;;;;;;;;;;;;23.22;33.08;97566.53;5045190;28;19925;-62
2022/05/12 11:51:35;;;;;;;;;;;;;;;23.17;32.21;97563.38;5050291;28;19979;-61
2022/05/12 11:54:03;;;;;;;;;;;;;;;23.22;32.12;97577.34;5050440;28;19925;-62
2022/05/12 11:57:01;;;;;;;;;;;;;;;23.29;31.59;97577.44;5051072;28;20317;-62
2022/05/12 11:59:36;;;;;;;;;;;;;;;23.29;31.76;97572.03;5004358;28;19929;-61
2022/05/12 12:02:07;;;;;;;;;;;;;;;23.25;31.27;97568.50;5029385;28;19929;-61
2022/05/12 12:04:38;;;;;;;;;;;;;;;23.20;31.79;97562.63;5030070;28;20016;-62
2022/05/12 12:07:05;;;;;;;;;;;;;;;23.13;31.67;97555.22;5029446;28;19955;-62
2022/05/12 12:09:32;;;;;;;;;;;;;;;23.22;31.94;97557.66;5008474;28;19925;-62
2022/05/12 12:11:58;;;;;;;;;;;;;;;23.24;32.08;97550.75;5029846;28;19929;-62
2022/05/12 12:14:42;;;;;;;;;;;;;;;23.28;32.13;97553.47;5031545;28;19932;-62
2022/05/12 12:17:31;;;;;;;;;;;;;;;23.18;32.71;97544.09;5054158;28;19933;-61
2022/05/12 12:19:58;;;;;;;;;;;;;;;23.11;32.67;97538.56;5041738;28;19933;-61
2022/05/12 12:22:27;;;;;;;;;;;;;;;23.21;32.89;97535.25;5043299;28;19956;-62
2022/05/12 12:25:11;;;;;;;;;;;;;;;23.21;33.00;97534.47;5033456;28;20023;-61
2022/05/12 12:27:47;;;;;;;;;;;;;;;23.37;32.62;97523.47;5051274;28;19948;-62
2022/05/12 12:30:18;;;;;;;;;;;;;;;23.40;33.09;97511.94;5054072;28;20430;-63
2022/05/12 12:32:44;;;;;;;;;;;;;;;23.27;33.29;97509.47;5051541;28;20022;-60
2022/05/12 12:35:24;;;;;;;;;;;;;;;23.27;33.34;97503.28;5049940;28;20023;-65
2022/05/12 12:37:51;;;;;;;;;;;;;;;22.95;33.87;97495.50;5057329;28;19940;-62
2022/05/12 12:40:32;;;;;;;;;;;;;;;23.02;33.79;97497.53;5051363;28;20016;-62
2022/05/12 12:42:58;;;;;;;;;;;;;;;22.98;34.07;97491.31;5039443;28;20337;-61
2022/05/12 12:45:24;;;;;;;;;;;;;;;22.96;34.29;97493.59;5044704;28;20079;-60
2022/05/12 12:47:54;;;;;;;;;;;;;;;22.96;34.67;97493.59;5035847;28;20016;-61
2022/05/12 12:50:40;;;;;;;;;;;;;;;22.96;34.41;97491.66;5031363;28;19935;-62
2022/05/12 12:53:06;;;;;;;;;;;;;;;22.90;34.78;97488.47;5039755;28;20040;-62
2022/05/12 12:58:42;;;;;;;;;;;;;;;22.77;34.97;97479.03;5031023;28;19929;-61
2022/05/12 13:01:16;;;;;;;;;;;;;;;22.55;35.66;97474.44;5032151;28;19952;-60
2022/05/12 13:03:46;;;;;;;;;;;;;;;22.37;35.75;97466.84;5033387;28;20306;-62
2022/05/12 13:06:17;;;;;;;;;;;;;;;22.32;35.99;97467.16;5031821;28;19932;-61
2022/05/12 13:08:42;;;;;;;;;;;;;;;22.23;36.30;97458.53;5030643;28;19952;-61
2022/05/12 13:11:16;;;;;;;;;;;;;;;22.09;36.67;97452.84;5030374;28;19925;-62
2022/05/12 13:13:48;;;;;;;;;;;;;;;22.03;36.85;97455.09;5046575;28;19951;-60
2022/05/12 13:16:14;;;;;;;;;;;;;;;21.97;37.21;97453.81;5050224;28;19947;-61
2022/05/12 13:18:47;;;;;;;;;;;;;;;22.03;37.45;97446.22;5034196;28;19929;-61
2022/05/12 13:21:20;;;;;;;;;;;;;;;22.02;37.56;97453.53;5034268;28;19925;-61